createdAt,value
2024-04-26T00:01:54.345Z,80.40
2024-04-26T00:04:21.470Z,80.30
2024-04-26T00:06:51.278Z,80.50
2024-04-26T00:09:18.446Z,80.40
2024-04-26T00:11:45.802Z,80.60
2024-04-26T00:14:12.952Z,80.60
2024-04-26T00:16:40.999Z,80.50
2024-04-26T00:19:08.495Z,80.60
2024-04-26T00:21:42.490Z,80.90
2024-04-26T00:24:15.839Z,80.80
2024-04-26T00:26:44.363Z,80.70
2024-04-26T00:29:12.157Z,80.50
2024-04-26T00:31:39.304Z,80.20
2024-04-26T00:34:07.108Z,80.60
2024-04-26T00:36:34.243Z,80.70
2024-04-26T00:39:01.531Z,80.60
2024-04-26T00:41:31.338Z,80.10
2024-04-26T00:44:09.875Z,80.00
2024-04-26T00:46:37.682Z,80.60
2024-04-26T00:49:05.144Z,80.90
2024-04-26T00:51:32.854Z,80.30
2024-04-26T00:54:01.191Z,80.00
2024-04-26T00:56:32.621Z,80.30
2024-04-26T00:58:59.998Z,80.50
2024-04-26T01:01:27.928Z,80.60
2024-04-26T01:03:55.116Z,81.30
2024-04-26T01:06:22.225Z,80.90
2024-04-26T01:08:49.762Z,80.80
2024-04-26T01:11:17.664Z,80.70
2024-04-26T01:13:47.565Z,81.30
2024-04-26T01:16:14.746Z,80.50
2024-04-26T01:18:42.120Z,81.00
2024-04-26T01:21:09.592Z,81.10
2024-04-26T01:23:36.929Z,81.30
2024-04-26T01:26:06.682Z,81.40
2024-04-26T01:28:38.330Z,81.60
2024-04-26T01:31:05.880Z,81.40
2024-04-26T01:33:33.603Z,80.80
2024-04-26T01:36:00.853Z,81.00
2024-04-26T01:38:28.423Z,80.90
2024-04-26T01:40:55.543Z,81.50
2024-04-26T01:43:25.278Z,81.70
2024-04-26T01:45:52.420Z,81.80
2024-04-26T01:48:19.657Z,81.40
2024-04-26T01:50:47.102Z,81.50
2024-04-26T01:53:14.299Z,81.20
2024-04-26T01:55:41.354Z,81.50
2024-04-26T01:58:08.603Z,81.00
2024-04-26T02:00:38.374Z,81.20
2024-04-26T02:03:05.900Z,81.20
2024-04-26T02:05:33.278Z,81.40
2024-04-26T02:08:00.425Z,81.80
2024-04-26T02:10:27.567Z,81.70
2024-04-26T02:12:55.886Z,81.30
2024-04-26T02:15:23.067Z,81.80
2024-04-26T02:17:52.947Z,81.40
2024-04-26T02:20:20.270Z,81.70
2024-04-26T02:22:47.423Z,81.70
2024-04-26T02:25:14.719Z,81.90
2024-04-26T02:27:41.926Z,81.90
2024-04-26T02:30:10.006Z,81.60
2024-04-26T02:32:37.338Z,81.30
2024-04-26T02:35:07.601Z,81.80
2024-04-26T02:37:34.661Z,81.70
2024-04-26T02:40:01.804Z,82.00
2024-04-26T02:42:28.853Z,81.90
2024-04-26T02:44:56.022Z,81.60
2024-04-26T02:47:23.368Z,81.80
2024-04-26T02:49:50.634Z,81.60
2024-04-26T02:52:20.463Z,81.30
2024-04-26T02:54:47.538Z,81.90
2024-04-26T02:57:16.953Z,81.90
2024-04-26T02:59:44.312Z,82.10
2024-04-26T03:02:16.534Z,82.30
2024-04-26T03:04:43.705Z,82.30
2024-04-26T03:07:11.858Z,82.30
2024-04-26T03:09:42.300Z,82.30
2024-04-26T03:12:09.617Z,81.80
2024-04-26T03:14:36.869Z,81.60
2024-04-26T03:17:04.188Z,82.00
2024-04-26T03:19:31.339Z,82.20
2024-04-26T03:21:58.425Z,82.00
2024-04-26T03:24:25.693Z,82.10
2024-04-26T03:26:55.493Z,82.00
2024-04-26T03:29:22.917Z,82.30
2024-04-26T03:31:50.215Z,82.30
2024-04-26T03:34:17.481Z,82.40
2024-04-26T03:36:45.359Z,82.30
2024-04-26T03:39:12.675Z,82.70
2024-04-26T03:41:39.884Z,82.70
2024-04-26T03:44:09.686Z,82.60
2024-04-26T03:46:41.687Z,82.20
2024-04-26T03:49:09.137Z,82.40
2024-04-26T03:51:36.785Z,82.50
2024-04-26T03:54:04.253Z,82.60
2024-04-26T03:56:31.486Z,82.70
2024-04-26T03:58:58.690Z,81.90
2024-04-26T04:01:28.517Z,81.80
2024-04-26T04:03:55.785Z,82.20
2024-04-26T04:06:23.055Z,82.50
2024-04-26T04:08:50.382Z,82.40
2024-04-26T04:11:17.638Z,82.20
2024-04-26T04:13:45.323Z,82.50
2024-04-26T04:16:12.574Z,82.20
2024-04-26T04:18:42.374Z,82.60
2024-04-26T04:21:09.840Z,82.50
2024-04-26T04:23:37.207Z,82.50
2024-04-26T04:26:04.578Z,82.40
2024-04-26T04:28:31.846Z,82.50
2024-04-26T04:30:58.988Z,82.30
2024-04-26T04:33:26.536Z,81.90
2024-04-26T04:35:56.728Z,82.50
2024-04-26T04:38:23.902Z,82.20
2024-04-26T04:40:51.053Z,82.30
2024-04-26T04:43:18.114Z,82.50
2024-04-26T04:45:45.456Z,82.60
2024-04-26T04:48:12.865Z,82.50
2024-04-26T04:50:40.098Z,82.40
2024-04-26T04:53:09.824Z,82.70
2024-04-26T04:55:36.965Z,82.20
2024-04-26T04:58:04.272Z,82.30
2024-04-26T05:00:31.458Z,82.30
2024-04-26T05:02:58.832Z,82.10
2024-04-26T05:05:26.121Z,82.30
2024-04-26T05:07:53.339Z,82.20
2024-04-26T05:10:23.237Z,82.10
2024-04-26T05:12:50.512Z,82.40
2024-04-26T05:15:18.101Z,82.40
2024-04-26T05:17:49.699Z,82.50
2024-04-26T05:20:17.261Z,82.40
2024-04-26T05:22:44.440Z,82.50
2024-04-26T05:25:11.594Z,82.20
2024-04-26T05:27:41.441Z,82.60
2024-04-26T05:30:09.157Z,82.40
2024-04-26T05:32:36.464Z,82.30
2024-04-26T05:35:03.957Z,82.60
2024-04-26T05:37:31.027Z,82.80
2024-04-26T05:39:58.263Z,82.60
2024-04-26T05:42:25.377Z,82.60
2024-04-26T05:44:55.246Z,82.60
2024-04-26T05:47:22.443Z,82.70
2024-04-26T05:49:50.497Z,82.40
2024-04-26T05:52:17.775Z,82.00
2024-04-26T05:54:44.896Z,82.20
2024-04-26T05:57:13.741Z,82.00
2024-04-26T05:59:41.034Z,82.30
2024-04-26T06:02:10.907Z,82.40
2024-04-26T06:04:40.707Z,82.30
2024-04-26T06:07:10.702Z,82.00
2024-04-26T06:09:38.925Z,82.10
2024-04-26T06:12:06.544Z,81.90
2024-04-26T06:14:33.714Z,82.30
2024-04-26T06:17:00.956Z,82.30
2024-04-26T06:19:30.993Z,82.40
2024-04-26T06:21:58.645Z,81.90
2024-04-26T06:24:25.723Z,82.00
2024-04-26T06:26:52.925Z,82.40
2024-04-26T06:29:20.929Z,82.30
2024-04-26T06:31:50.065Z,82.50
2024-04-26T06:34:17.283Z,82.20
2024-04-26T06:36:47.328Z,82.30
2024-04-26T06:39:14.394Z,81.70
2024-04-26T06:41:41.571Z,81.90
2024-04-26T06:44:20.200Z,81.90
2024-04-26T06:46:48.318Z,81.90
2024-04-26T06:49:17.758Z,82.10
2024-04-26T06:51:48.212Z,82.20
2024-04-26T06:54:16.173Z,82.00
2024-04-26T06:56:43.398Z,81.20
2024-04-26T06:59:10.502Z,81.00
2024-04-26T07:01:37.759Z,80.40
2024-04-26T07:04:05.523Z,80.30
2024-04-26T07:06:33.033Z,80.00
2024-04-26T07:09:02.855Z,79.70
2024-04-26T07:11:31.746Z,79.80
2024-04-26T07:13:58.947Z,79.20
2024-04-26T07:16:26.044Z,78.60
2024-04-26T07:18:54.058Z,77.80
2024-04-26T07:21:21.255Z,77.40
2024-04-26T07:23:48.346Z,77.70
2024-04-26T07:26:21.236Z,77.40
2024-04-26T07:28:48.339Z,77.00
2024-04-26T07:31:15.548Z,76.90
2024-04-26T07:33:42.982Z,76.40
2024-04-26T07:36:10.419Z,75.80
2024-04-26T07:38:37.821Z,75.50
2024-04-26T07:41:05.825Z,75.00
2024-04-26T07:43:35.547Z,75.00
2024-04-26T07:46:02.676Z,74.70
2024-04-26T07:48:29.802Z,73.80
2024-04-26T07:50:57.025Z,73.80
2024-04-26T07:53:24.341Z,74.10
2024-04-26T07:55:51.460Z,73.90
2024-04-26T07:58:18.581Z,73.30
2024-04-26T08:00:49.421Z,73.00
2024-04-26T08:03:16.730Z,72.80
2024-04-26T08:05:48.288Z,72.50
2024-04-26T08:08:17.892Z,72.10
2024-04-26T08:10:45.595Z,72.70
2024-04-26T08:13:12.814Z,72.00
2024-04-26T08:15:41.468Z,72.30
2024-04-26T08:18:11.498Z,71.00
2024-04-26T08:20:38.751Z,71.50
2024-04-26T08:23:08.483Z,70.70
2024-04-26T08:25:36.528Z,71.10
2024-04-26T08:28:04.199Z,69.60
2024-04-26T08:30:33.089Z,70.10
2024-04-26T08:33:06.083Z,69.70
2024-04-26T08:35:38.011Z,70.40
2024-04-26T08:38:05.658Z,69.70
2024-04-26T08:40:33.574Z,68.90
2024-04-26T08:43:01.573Z,69.40
2024-04-26T08:45:36.069Z,68.50
2024-04-26T08:48:04.141Z,68.90
2024-04-26T08:50:32.813Z,68.00
2024-04-26T08:53:05.818Z,68.00
2024-04-26T08:55:38.915Z,68.00
2024-04-26T08:58:09.771Z,67.20
2024-04-26T09:00:37.478Z,66.90
2024-04-26T09:03:05.344Z,67.10
2024-04-26T09:05:33.676Z,67.20
2024-04-26T09:08:04.046Z,68.20
2024-04-26T09:10:31.459Z,67.30
2024-04-26T09:13:04.104Z,67.90
2024-04-26T09:15:32.758Z,68.80
2024-04-26T09:18:00.775Z,68.80
2024-04-26T09:20:28.978Z,67.50
2024-04-26T09:22:56.216Z,66.90
2024-04-26T09:25:33.625Z,67.20
2024-04-26T09:28:00.880Z,67.50
2024-04-26T09:30:28.094Z,67.30
2024-04-26T09:33:00.969Z,67.20
2024-04-26T09:35:35.621Z,67.10
2024-04-26T09:38:06.101Z,67.20
2024-04-26T09:40:36.741Z,68.40
2024-04-26T09:43:04.431Z,67.80
2024-04-26T09:45:31.587Z,67.70
2024-04-26T09:48:00.399Z,67.00
2024-04-26T09:50:27.914Z,66.20
2024-04-26T09:52:56.766Z,65.50
2024-04-26T09:55:24.281Z,65.70
2024-04-26T09:57:55.200Z,65.70
2024-04-26T10:00:22.795Z,65.70
2024-04-26T10:02:57.640Z,64.90
2024-04-26T10:05:26.145Z,63.70
2024-04-26T10:07:59.995Z,63.60
2024-04-26T10:10:27.444Z,64.30
2024-04-26T10:13:05.020Z,64.70
2024-04-26T10:15:33.182Z,64.50
2024-04-26T10:18:00.648Z,64.60
2024-04-26T10:20:29.255Z,64.90
2024-04-26T10:23:04.713Z,65.50
2024-04-26T10:25:32.022Z,64.30
2024-04-26T10:28:13.114Z,63.00
2024-04-26T10:30:45.592Z,61.20
2024-04-26T10:33:12.783Z,61.40
2024-04-26T10:35:40.072Z,60.20
2024-04-26T10:38:07.972Z,60.30
2024-04-26T10:40:45.598Z,61.10
2024-04-26T10:43:22.502Z,60.70
2024-04-26T10:45:51.552Z,60.80
2024-04-26T10:48:19.107Z,59.80
2024-04-26T10:50:46.463Z,58.80
2024-04-26T10:53:13.564Z,59.10
2024-04-26T10:55:42.110Z,57.60
2024-04-26T10:58:10.247Z,59.60
2024-04-26T11:00:44.737Z,57.60
2024-04-26T11:03:13.791Z,60.10
2024-04-26T11:05:45.039Z,59.20
2024-04-26T11:08:12.450Z,59.70
2024-04-26T11:10:40.576Z,60.20
2024-04-26T11:13:07.833Z,60.80
2024-04-26T11:15:38.041Z,59.40
2024-04-26T11:18:08.191Z,58.20
2024-04-26T11:20:35.430Z,58.60
2024-04-26T11:23:02.593Z,57.10
2024-04-26T11:25:29.670Z,57.40
2024-04-26T11:27:56.751Z,58.50
2024-04-26T11:30:23.939Z,58.00
2024-04-26T11:32:51.240Z,58.20
2024-04-26T11:35:21.118Z,56.70
2024-04-26T11:37:49.373Z,57.70
2024-04-26T11:40:20.585Z,57.90
2024-04-26T11:42:47.657Z,60.10
2024-04-26T11:45:14.937Z,59.40
2024-04-26T11:47:46.523Z,57.30
2024-04-26T11:50:16.231Z,57.30
2024-04-26T11:52:46.026Z,56.80
2024-04-26T11:55:19.056Z,55.30
2024-04-26T11:57:46.355Z,56.60
2024-04-26T12:00:13.906Z,55.40
2024-04-26T12:02:41.170Z,56.30
2024-04-26T12:05:08.435Z,55.30
2024-04-26T12:07:35.537Z,55.00
2024-04-26T12:10:05.817Z,52.70
2024-04-26T12:12:32.954Z,55.80
2024-04-26T12:15:02.676Z,54.60
2024-04-26T12:17:29.988Z,53.40
2024-04-26T12:19:57.167Z,53.30
2024-04-26T12:22:24.250Z,54.80
2024-04-26T12:24:51.398Z,54.90
2024-04-26T12:27:21.310Z,55.10
2024-04-26T12:29:48.567Z,54.30
2024-04-26T12:32:15.719Z,53.90
2024-04-26T12:34:43.260Z,54.00
2024-04-26T12:37:11.915Z,53.20
2024-04-26T12:39:40.553Z,55.10
2024-04-26T12:42:09.059Z,54.10
2024-04-26T12:44:41.357Z,54.50
2024-04-26T12:47:08.661Z,52.70
2024-04-26T12:49:36.780Z,51.60
2024-04-26T12:52:04.165Z,50.40
2024-04-26T12:54:34.674Z,51.80
2024-04-26T12:57:02.326Z,51.20
2024-04-26T12:59:29.730Z,50.10
2024-04-26T13:01:59.536Z,51.10
2024-04-26T13:04:26.902Z,50.40
2024-04-26T13:06:56.241Z,53.70
2024-04-26T13:09:23.714Z,51.40
2024-04-26T13:11:51.072Z,51.60
2024-04-26T13:14:18.215Z,51.50
2024-04-26T13:16:45.645Z,51.40
2024-04-26T13:19:18.475Z,52.90
2024-04-26T13:21:46.237Z,51.50
2024-04-26T13:24:15.823Z,52.30
2024-04-26T13:26:46.591Z,52.30
2024-04-26T13:29:13.952Z,52.40
2024-04-26T13:31:41.884Z,51.20
2024-04-26T13:34:11.499Z,52.90
2024-04-26T13:36:43.187Z,52.50
2024-04-26T13:39:12.570Z,53.40
2024-04-26T13:41:40.114Z,52.40
2024-04-26T13:44:08.861Z,51.90
2024-04-26T13:46:40.127Z,52.00
2024-04-26T13:49:07.824Z,51.80
2024-04-26T13:51:35.184Z,50.50
2024-04-26T13:54:05.071Z,52.10
2024-04-26T13:56:33.461Z,53.70
2024-04-26T13:59:00.803Z,53.10
2024-04-26T14:01:28.009Z,52.00
2024-04-26T14:03:55.520Z,54.00
2024-04-26T14:06:23.805Z,53.50
2024-04-26T14:08:51.030Z,54.00
2024-04-26T14:11:21.014Z,53.90
2024-04-26T14:13:48.321Z,53.60
2024-04-26T14:16:17.027Z,52.90
2024-04-26T14:18:47.813Z,53.70
2024-04-26T14:21:17.895Z,53.30
2024-04-26T14:23:45.830Z,53.70
2024-04-26T14:26:18.807Z,53.50
2024-04-26T14:28:48.847Z,53.60
2024-04-26T14:31:16.310Z,54.30
2024-04-26T14:33:43.813Z,53.90
2024-04-26T14:36:12.037Z,52.40
2024-04-26T14:38:39.184Z,53.70
2024-04-26T14:41:07.962Z,52.70
2024-04-26T14:43:35.239Z,53.80
2024-04-26T14:46:05.305Z,53.40
2024-04-26T14:48:33.163Z,52.70
2024-04-26T14:51:00.362Z,53.30
2024-04-26T14:53:27.559Z,52.80
2024-04-26T14:55:54.712Z,52.30
2024-04-26T14:58:21.973Z,53.40
2024-04-26T15:00:49.203Z,52.50
2024-04-26T15:03:18.929Z,53.00
2024-04-26T15:05:46.135Z,52.40
2024-04-26T15:08:13.231Z,53.00
2024-04-26T15:10:42.044Z,52.60
2024-04-26T15:13:10.023Z,52.10
2024-04-26T15:15:37.437Z,52.00
2024-04-26T15:18:05.120Z,52.70
2024-04-26T15:20:35.024Z,52.90
2024-04-26T15:23:02.284Z,52.50
2024-04-26T15:25:29.532Z,52.60
2024-04-26T15:27:57.183Z,52.20
2024-04-26T15:30:24.360Z,52.10
2024-04-26T15:32:51.577Z,53.00
2024-04-26T15:35:19.023Z,53.20
2024-04-26T15:37:49.248Z,52.40
2024-04-26T15:40:16.514Z,51.70
2024-04-26T15:42:43.757Z,52.10
2024-04-26T15:45:10.888Z,52.10
2024-04-26T15:47:39.858Z,52.40
2024-04-26T15:50:08.154Z,52.90
2024-04-26T15:52:37.378Z,52.80
2024-04-26T15:55:08.061Z,52.60
2024-04-26T15:57:35.161Z,52.70
2024-04-26T16:00:02.455Z,52.80
2024-04-26T16:02:29.689Z,52.60
2024-04-26T16:04:57.312Z,52.90
2024-04-26T16:07:24.627Z,53.30
2024-04-26T16:09:51.690Z,53.20
2024-04-26T16:12:22.782Z,52.70
2024-04-26T16:14:50.824Z,53.10
2024-04-26T16:17:18.203Z,53.00
2024-04-26T16:19:51.173Z,53.20
2024-04-26T16:22:18.639Z,52.60
2024-04-26T16:24:45.918Z,52.80
2024-04-26T16:27:13.020Z,53.00
2024-04-26T16:29:42.825Z,53.00
2024-04-26T16:32:09.918Z,53.30
2024-04-26T16:34:37.016Z,53.30
2024-04-26T16:37:04.381Z,53.70
2024-04-26T16:39:31.554Z,53.40
2024-04-26T16:41:58.752Z,53.60
2024-04-26T16:44:28.576Z,53.50
2024-04-26T16:50:02.685Z,53.60
2024-04-26T16:52:31.711Z,53.60
2024-04-26T16:54:59.082Z,53.80
2024-04-26T16:57:27.108Z,53.90
2024-04-26T16:59:54.366Z,53.90
2024-04-26T17:02:25.083Z,54.10
2024-04-26T17:04:52.271Z,54.30
2024-04-26T17:07:19.499Z,54.40
2024-04-26T17:09:46.590Z,54.30
2024-04-26T17:12:13.729Z,54.60
2024-04-26T17:14:41.009Z,55.50
2024-04-26T17:17:08.250Z,56.10
2024-04-26T17:19:38.998Z,56.40
2024-04-26T17:22:06.644Z,56.50
2024-04-26T17:24:35.767Z,56.80
2024-04-26T17:27:02.967Z,57.40
2024-04-26T17:29:30.184Z,57.00
2024-04-26T17:31:57.541Z,57.00
2024-04-26T17:34:24.803Z,57.10
2024-04-26T17:36:54.597Z,57.70
2024-04-26T17:39:21.785Z,57.40
2024-04-26T17:41:49.024Z,57.70
2024-04-26T17:44:18.540Z,57.80
2024-04-26T17:46:46.636Z,57.60
2024-04-26T17:49:13.867Z,57.60
2024-04-26T17:51:45.381Z,57.70
2024-04-26T17:54:15.425Z,58.10
2024-04-26T17:56:42.594Z,57.90
2024-04-26T17:59:10.781Z,58.00
2024-04-26T18:01:38.024Z,58.30
2024-04-26T18:04:05.606Z,58.20
2024-04-26T18:06:32.749Z,58.60
2024-04-26T18:09:00.278Z,58.70
2024-04-26T18:11:30.417Z,58.40
2024-04-26T18:14:02.181Z,58.60
2024-04-26T18:16:29.788Z,58.80
2024-04-26T18:18:57.356Z,58.80
2024-04-26T18:21:25.652Z,58.90
2024-04-26T18:23:53.833Z,58.80
2024-04-26T18:26:21.315Z,58.90
2024-04-26T18:28:51.366Z,59.10
2024-04-26T18:31:18.816Z,59.30
2024-04-26T18:33:46.796Z,59.40
2024-04-26T18:36:16.080Z,59.60
2024-04-26T18:38:43.790Z,59.60
2024-04-26T18:41:11.234Z,59.60
2024-04-26T18:43:38.477Z,59.60
2024-04-26T18:46:09.325Z,59.80
2024-04-26T18:48:38.136Z,59.90
2024-04-26T18:51:06.011Z,60.00
2024-04-26T18:53:35.316Z,59.90
2024-04-26T18:56:02.604Z,60.30
2024-04-26T18:58:29.816Z,60.40
2024-04-26T19:00:57.082Z,60.70
2024-04-26T19:03:26.902Z,60.90
2024-04-26T19:05:53.977Z,60.80
2024-04-26T19:08:21.126Z,60.90
2024-04-26T19:10:48.511Z,61.00
2024-04-26T19:13:18.465Z,61.20
2024-04-26T19:15:47.381Z,61.20
2024-04-26T19:18:15.012Z,61.80
2024-04-26T19:20:45.274Z,61.50
2024-04-26T19:23:12.422Z,61.50
2024-04-26T19:25:39.633Z,61.60
2024-04-26T19:28:06.910Z,61.90
2024-04-26T19:30:34.779Z,61.80
2024-04-26T19:33:02.155Z,61.90
2024-04-26T19:35:30.732Z,61.80
2024-04-26T19:38:01.740Z,62.10
2024-04-26T19:40:28.975Z,62.20
2024-04-26T19:42:56.677Z,62.40
2024-04-26T19:45:23.941Z,62.60
2024-04-26T19:47:52.506Z,62.40
2024-04-26T19:50:20.706Z,62.50
2024-04-26T19:53:06.517Z,62.40
2024-04-26T19:55:55.039Z,62.40
2024-04-26T19:58:23.718Z,62.50
2024-04-26T20:00:50.961Z,62.60
2024-04-26T20:03:18.513Z,62.70
2024-04-26T20:05:45.727Z,62.70
2024-04-26T20:08:12.871Z,62.90
2024-04-26T20:10:44.289Z,62.90
2024-04-26T20:13:12.119Z,63.00
2024-04-26T20:15:39.407Z,63.10
2024-04-26T20:18:06.562Z,63.30
2024-04-26T20:20:36.576Z,63.30
2024-04-26T20:23:04.009Z,63.30
2024-04-26T20:25:31.178Z,63.30
2024-04-26T20:28:00.934Z,63.50
2024-04-26T20:30:28.040Z,63.50
2024-04-26T20:32:55.401Z,63.50
2024-04-26T20:35:22.572Z,63.50
2024-04-26T20:37:49.739Z,63.50
2024-04-26T20:40:17.091Z,63.90
2024-04-26T20:42:44.205Z,64.20
2024-04-26T20:45:14.566Z,64.30
2024-04-26T20:47:43.879Z,64.80
2024-04-26T20:50:11.170Z,65.10
2024-04-26T20:52:38.782Z,65.30
2024-04-26T20:55:06.155Z,65.50
2024-04-26T20:57:34.371Z,65.60
2024-04-26T21:00:01.486Z,65.80
2024-04-26T21:02:31.573Z,65.90
2024-04-26T21:04:58.757Z,66.20
2024-04-26T21:07:25.858Z,66.60
2024-04-26T21:09:53.005Z,66.70
2024-04-26T21:12:20.396Z,66.70
2024-04-26T21:14:47.474Z,66.90
2024-04-26T21:17:14.667Z,66.80
2024-04-26T21:19:44.516Z,67.10
2024-04-26T21:22:11.598Z,65.90
2024-04-26T21:24:38.624Z,65.70
2024-04-26T21:27:05.972Z,66.20
2024-04-26T21:29:33.129Z,66.60
2024-04-26T21:32:00.395Z,66.90
2024-04-26T21:34:27.581Z,66.90
2024-04-26T21:36:57.379Z,67.20
2024-04-26T21:39:24.531Z,67.60
2024-04-26T21:41:52.339Z,67.70
2024-04-26T21:44:19.464Z,67.40
2024-04-26T21:46:52.493Z,67.50
2024-04-26T21:49:20.738Z,67.70
2024-04-26T21:51:47.873Z,66.90
2024-04-26T21:54:17.640Z,67.30
2024-04-26T21:56:44.978Z,66.10
2024-04-26T21:59:16.489Z,67.50
2024-04-26T22:01:45.830Z,67.50
2024-04-26T22:04:13.004Z,68.00
2024-04-26T22:06:40.327Z,67.40
2024-04-26T22:09:08.130Z,67.00
2024-04-26T22:11:38.062Z,66.80
2024-04-26T22:14:05.336Z,67.90
2024-04-26T22:16:32.463Z,68.20
2024-04-26T22:18:59.551Z,67.30
2024-04-26T22:21:26.633Z,67.40
2024-04-26T22:23:53.702Z,67.30
2024-04-26T22:26:20.805Z,68.10
2024-04-26T22:28:50.561Z,68.20
2024-04-26T22:31:19.265Z,68.50
2024-04-26T22:33:46.471Z,68.90
2024-04-26T22:36:13.801Z,68.20
2024-04-26T22:38:40.904Z,67.80
2024-04-26T22:41:07.997Z,67.80
2024-04-26T22:43:36.265Z,68.30
2024-04-26T22:46:07.441Z,68.40
2024-04-26T22:48:34.764Z,68.00
2024-04-26T22:51:02.134Z,67.50
2024-04-26T22:53:30.104Z,68.40
2024-04-26T22:55:57.289Z,68.60
2024-04-26T22:58:24.862Z,68.50
2024-04-26T23:00:52.027Z,68.80
2024-04-26T23:03:21.916Z,68.70
2024-04-26T23:05:49.045Z,69.00
2024-04-26T23:08:16.198Z,69.20
2024-04-26T23:10:44.077Z,68.10
2024-04-26T23:13:11.393Z,68.70
2024-04-26T23:15:38.709Z,69.30
2024-04-26T23:18:06.256Z,69.30
2024-04-26T23:20:35.956Z,69.30
2024-04-26T23:23:03.136Z,69.30
2024-04-26T23:25:30.229Z,69.40
2024-04-26T23:27:57.362Z,69.80
2024-04-26T23:30:25.063Z,69.30
2024-04-26T23:32:52.284Z,68.70
2024-04-26T23:35:19.439Z,69.00
2024-04-26T23:37:49.430Z,68.50
2024-04-26T23:40:16.556Z,69.10
2024-04-26T23:42:43.674Z,69.30
2024-04-26T23:45:10.769Z,69.80
2024-04-26T23:47:38.019Z,70.00
2024-04-26T23:50:05.715Z,69.80
2024-04-26T23:52:34.709Z,69.90
2024-04-26T23:55:05.150Z,69.60
2024-04-26T23:57:32.254Z,69.90
2024-04-26T23:59:59.413Z,70.20
